TRINITY LAKE (CLE)

Elevation: 2370' · TRINITY R basin · Operator: US Bureau of Reclamation

Provisional data, subject to change.
Query executed Friday at 13:11:27   clock

Select a sensor type for a plot of data.
Note: Reservoir Flows are daily averages.

Earlier

Date RES ELE    STORAGE    RES CHG    OUTFLOW    INFLOW    EVAP    FNF    RIV REL    PPT INC    SPILL    DIS PWR   
 FEET   AF   AF   CFS   CFS   CFS   CFS   CFS   INCHES   CFS   CFS  
01/01/2015 2233.04 816671 1619 594 1410 0 1410 0 0.00 0 594
01/02/2015 2233.23 818144 1473 557 1300 0 1300 0 0.00 0 557
01/03/2015 2233.39 819384 1240 581 1206 0 1206 0 0.00 0 581
01/04/2015 2233.61 821089 1705 313 1196 23 1196 0 0.00 0 313
01/05/2015 2233.76 822252 1163 491 1086 9 1086 0 0.00 0 491
01/06/2015 2233.94 823647 1395 434 1139 2 1139 0 0.00 0 434
01/07/2015 2234.11 824970 1323 401 1091 23 1091 0 0.00 0 401
01/08/2015 2234.33 826686 1716 239 1109 5 1109 0 0.00 0 239
01/09/2015 2234.52 828169 1483 330 1080 2 1080 0 0.00 0 330
01/10/2015 2234.71 829651 1482 333 1080 0 1080 0 0.00 0 333
01/11/2015 2234.91 831211 1560 265 1053 2 1053 0 0.00 0 265
01/12/2015 2235.10 832698 1487 266 1016 0 1016 0 0.00 0 266
01/13/2015 2235.27 834033 1335 332 1007 2 1007 0 0.00 0 332
01/14/2015 2235.36 834739 706 605 968 7 968 0 0.00 0 605
01/15/2015 2235.52 835996 1257 278 917 5 917 0 0.00 0 278
01/16/2015 2235.84 838508 2512 288 1559 5 1559 0 0.62 0 288
01/17/2015 2236.16 841028 2520 280 1557 7 1557 0 0.13 0 280
01/18/2015 2236.92 847033 6005 263 3299 9 3299 0 0.39 0 263
01/19/2015 2237.42 851004 3971 342 2351 7 2351 0 0.01 0 342
01/20/2015 2237.76 853708 2704 491 1861 7 1861 0 0.00 0 491
01/21/2015 2238.08 856256 2548 308 1598 5 1598 0 0.00 0 308
01/22/2015 2238.37 858577 2321 269 1446 7 1446 0 0.00 0 269
01/23/2015 2238.61 860497 1920 352 1327 7 1327 0 0.00 0 352
01/24/2015 2238.85 862418 1921 320 1293 5 1293 0 0.00 0 320
01/25/2015 2238.98 863458 1040 332 865 9 1239 e 0 0.00 0 332
01/26/2015 2239.30 866034 2576 307 1613 7 1239 e 0 0.00 0 307
01/27/2015 2239.51 867725 1691 329 1184 2 1184 0 0.00 0 329
01/28/2015 2239.73 869497 1772 211 1113 9 1113 0 0.00 0 211
01/29/2015 2239.91 870946 1449 328 1066 7 1066 0 0.00 0 328
01/30/2015 -- -- -- -- -- -- -- -- -- -- --

Later | Latest

Warning! This data is preliminary and subject to revision.

Show CLE Map | Plot CLE Data | 1 Month CLE Data | Real-Time CLE Data | CLE Info